createdAt,value
2019-01-13T00:00:56.512Z,8.95
2019-01-13T00:03:22.968Z,8.15
2019-01-13T00:05:49.488Z,8.43
2019-01-13T00:08:15.961Z,8.83
2019-01-13T00:10:42.326Z,9.50
2019-01-13T00:13:08.918Z,8.63
2019-01-13T00:15:35.411Z,10.25
2019-01-13T00:18:01.849Z,8.68
2019-01-13T00:20:28.251Z,7.28
2019-01-13T00:22:54.723Z,7.65
2019-01-13T00:25:21.143Z,8.93
2019-01-13T00:27:47.441Z,9.53
2019-01-13T00:30:19.349Z,9.08
2019-01-13T00:32:45.132Z,8.50
2019-01-13T00:35:11.706Z,10.32
2019-01-13T00:37:37.964Z,9.50
2019-01-13T00:40:10.205Z,11.25
2019-01-13T00:42:36.660Z,8.40
2019-01-13T00:45:05.664Z,7.87
2019-01-13T00:47:32.165Z,7.90
2019-01-13T00:49:58.573Z,6.80
2019-01-13T00:52:24.961Z,6.53
2019-01-13T00:54:51.307Z,7.78
2019-01-13T00:57:17.703Z,7.10
2019-01-13T00:59:44.141Z,9.28
2019-01-13T01:02:10.528Z,6.60
2019-01-13T01:04:36.908Z,6.85
2019-01-13T01:07:03.969Z,3.25
2019-01-13T01:09:30.358Z,3.10
2019-01-13T01:11:56.944Z,2.40
2019-01-13T01:14:23.460Z,2.80
2019-01-13T01:16:49.973Z,2.60
2019-01-13T01:19:16.341Z,2.75
2019-01-13T01:21:42.722Z,1.87
2019-01-13T01:24:09.020Z,2.10
2019-01-13T01:26:35.413Z,1.87
2019-01-13T01:29:01.675Z,1.85
2019-01-13T01:31:27.981Z,1.95
2019-01-13T01:33:54.266Z,2.45
2019-01-13T01:36:20.528Z,1.92
2019-01-13T01:38:46.806Z,2.50
2019-01-13T01:41:13.081Z,2.20
2019-01-13T01:43:39.535Z,2.70
2019-01-13T01:46:05.960Z,2.00
2019-01-13T01:48:32.359Z,1.80
2019-01-13T01:50:58.752Z,2.60
2019-01-13T01:53:25.331Z,1.55
2019-01-13T01:55:51.639Z,2.65
2019-01-13T01:58:18.001Z,2.42
2019-01-13T02:00:44.443Z,2.30
2019-01-13T02:03:10.810Z,2.55
2019-01-13T02:05:37.177Z,2.30
2019-01-13T02:08:03.815Z,3.12
2019-01-13T02:10:30.283Z,2.17
2019-01-13T02:12:56.664Z,2.52
2019-01-13T02:15:24.347Z,1.90
2019-01-13T02:17:50.824Z,2.55
2019-01-13T02:20:18.141Z,2.40
2019-01-13T02:22:44.804Z,2.50
2019-01-13T02:25:14.425Z,2.75
2019-01-13T02:27:40.805Z,2.40
2019-01-13T02:30:10.888Z,3.08
2019-01-13T02:32:37.192Z,3.02
2019-01-13T02:35:05.868Z,2.75
2019-01-13T02:37:32.252Z,3.00
2019-01-13T02:39:58.625Z,3.30
2019-01-13T02:42:24.908Z,3.55
2019-01-13T02:44:51.306Z,3.20
2019-01-13T02:47:17.668Z,3.08
2019-01-13T02:49:43.955Z,3.52
2019-01-13T02:52:10.345Z,3.33
2019-01-13T02:54:36.589Z,3.52
2019-01-13T02:57:03.072Z,3.80
2019-01-13T02:59:29.393Z,3.75
2019-01-13T03:01:55.677Z,3.15
2019-01-13T03:04:21.945Z,3.52
2019-01-13T03:06:48.321Z,3.30
2019-01-13T03:09:14.621Z,3.60
2019-01-13T03:11:41.019Z,3.20
2019-01-13T03:14:07.510Z,3.30
2019-01-13T03:16:33.898Z,3.17
2019-01-13T03:19:00.328Z,3.10
2019-01-13T03:21:26.588Z,3.80
2019-01-13T03:23:52.854Z,3.05
2019-01-13T03:26:19.241Z,3.45
2019-01-13T03:28:45.516Z,3.08
2019-01-13T03:31:12.829Z,2.92
2019-01-13T03:33:39.267Z,2.50
2019-01-13T03:36:05.740Z,2.70
2019-01-13T03:38:31.999Z,3.00
2019-01-13T03:40:58.389Z,2.40
2019-01-13T03:43:24.745Z,2.58
2019-01-13T03:45:51.212Z,3.02
2019-01-13T03:48:17.493Z,2.58
2019-01-13T03:50:43.788Z,2.40
2019-01-13T03:53:10.232Z,1.87
2019-01-13T03:55:36.602Z,1.87
2019-01-13T03:58:03.090Z,2.20
2019-01-13T04:00:29.469Z,2.17
2019-01-13T04:02:55.837Z,2.30
2019-01-13T04:05:22.315Z,1.85
2019-01-13T04:07:48.785Z,1.70
2019-01-13T04:10:16.384Z,2.10
2019-01-13T04:12:42.942Z,1.65
2019-01-13T04:15:18.793Z,1.67
2019-01-13T04:17:45.456Z,2.00
2019-01-13T04:20:11.822Z,1.65
2019-01-13T04:22:38.110Z,1.70
2019-01-13T04:25:04.581Z,1.80
2019-01-13T04:27:30.960Z,1.60
2019-01-13T04:29:57.220Z,1.82
2019-01-13T04:32:23.524Z,1.70
2019-01-13T04:34:49.806Z,1.85
2019-01-13T04:37:16.064Z,1.87
2019-01-13T04:39:42.354Z,2.00
2019-01-13T04:42:08.624Z,2.17
2019-01-13T04:44:34.927Z,2.40
2019-01-13T04:47:01.302Z,1.95
2019-01-13T04:49:27.573Z,2.02
2019-01-13T04:51:53.847Z,2.00
2019-01-13T04:54:20.104Z,2.02
2019-01-13T04:56:46.371Z,2.00
2019-01-13T04:59:12.777Z,2.02
2019-01-13T05:01:39.180Z,2.17
2019-01-13T05:04:05.576Z,2.15
2019-01-13T05:06:31.989Z,2.30
2019-01-13T05:08:58.383Z,2.50
2019-01-13T05:11:24.647Z,2.45
2019-01-13T05:13:50.929Z,2.60
2019-01-13T05:16:17.306Z,3.90
2019-01-13T05:18:43.802Z,4.62
2019-01-13T05:21:10.163Z,4.10
2019-01-13T05:23:36.511Z,4.40
2019-01-13T05:26:02.999Z,6.30
2019-01-13T05:28:29.260Z,5.45
2019-01-13T05:30:55.541Z,5.25
2019-01-13T05:33:21.854Z,5.85
2019-01-13T05:35:48.241Z,6.90
2019-01-13T05:38:14.505Z,6.30
2019-01-13T05:40:40.892Z,7.05
2019-01-13T05:43:07.172Z,6.50
2019-01-13T05:45:33.440Z,6.80
2019-01-13T05:47:59.717Z,7.78
2019-01-13T05:50:26.063Z,7.20
2019-01-13T05:52:52.901Z,7.90
2019-01-13T05:55:19.362Z,7.35
2019-01-13T05:57:45.837Z,8.68
2019-01-13T06:00:17.774Z,7.60
2019-01-13T06:02:44.094Z,8.13
2019-01-13T06:05:10.544Z,8.73
2019-01-13T06:07:37.045Z,7.97
2019-01-13T06:10:07.186Z,7.37
2019-01-13T06:12:33.565Z,8.05
2019-01-13T06:14:59.919Z,8.60
2019-01-13T06:17:26.296Z,9.45
2019-01-13T06:19:52.653Z,7.95
2019-01-13T06:22:19.107Z,7.53
2019-01-13T06:24:45.422Z,8.68
2019-01-13T06:27:11.679Z,8.33
2019-01-13T06:29:37.931Z,7.72
2019-01-13T06:32:05.418Z,8.65
2019-01-13T06:34:32.337Z,7.37
2019-01-13T06:36:58.885Z,5.00
2019-01-13T06:39:25.242Z,5.75
2019-01-13T06:41:51.699Z,6.95
2019-01-13T06:44:18.152Z,6.17
2019-01-13T06:46:51.691Z,6.25
2019-01-13T06:49:18.457Z,9.53
2019-01-13T06:51:44.913Z,7.90
2019-01-13T06:54:11.223Z,5.83
2019-01-13T06:56:38.093Z,6.35
2019-01-13T06:59:04.368Z,6.95
2019-01-13T07:01:30.664Z,6.62
2019-01-13T07:03:56.926Z,6.80
2019-01-13T07:06:23.247Z,6.87
2019-01-13T07:08:49.517Z,6.47
2019-01-13T07:11:15.808Z,7.60
2019-01-13T07:13:42.084Z,6.00
2019-01-13T07:16:08.345Z,6.10
2019-01-13T07:18:34.824Z,6.50
2019-01-13T07:21:01.226Z,6.70
2019-01-13T07:23:27.570Z,7.28
2019-01-13T07:25:53.891Z,5.95
2019-01-13T07:28:20.301Z,6.60
2019-01-13T07:30:46.596Z,6.00
2019-01-13T07:33:12.961Z,6.50
2019-01-13T07:35:39.221Z,6.08
2019-01-13T07:38:05.515Z,5.87
2019-01-13T07:40:31.788Z,7.75
2019-01-13T07:42:58.149Z,7.00
2019-01-13T07:45:25.572Z,7.80
2019-01-13T07:47:52.054Z,7.47
2019-01-13T07:50:18.505Z,6.70
2019-01-13T07:52:45.382Z,7.25
2019-01-13T07:55:16.929Z,7.40
2019-01-13T07:57:43.417Z,6.85
2019-01-13T08:00:19.538Z,7.10
2019-01-13T08:02:46.038Z,7.67
2019-01-13T08:05:12.386Z,8.45
2019-01-13T08:07:38.867Z,8.00
2019-01-13T08:10:08.981Z,8.40
2019-01-13T08:12:35.252Z,9.00
2019-01-13T08:15:01.745Z,7.33
2019-01-13T08:17:28.148Z,11.83
2019-01-13T08:19:54.624Z,9.00
2019-01-13T08:22:21.000Z,7.85
2019-01-13T08:24:47.491Z,7.87
2019-01-13T08:27:14.071Z,7.95
2019-01-13T08:29:40.453Z,7.62
2019-01-13T08:32:06.728Z,7.12
2019-01-13T08:34:33.113Z,10.40
2019-01-13T08:36:59.459Z,7.85
2019-01-13T08:39:25.931Z,17.60
2019-01-13T08:41:52.209Z,8.25
2019-01-13T08:44:18.467Z,7.40
2019-01-13T08:46:44.844Z,7.22
2019-01-13T08:49:11.117Z,7.30
2019-01-13T08:51:37.605Z,7.15
2019-01-13T08:54:04.014Z,8.45
2019-01-13T08:56:30.419Z,7.90
2019-01-13T08:58:56.816Z,8.00
2019-01-13T09:01:23.280Z,7.83
2019-01-13T09:03:49.689Z,7.90
2019-01-13T09:06:16.076Z,7.72
2019-01-13T09:08:42.479Z,8.15
2019-01-13T09:11:09.096Z,6.58
2019-01-13T09:13:35.580Z,7.83
2019-01-13T09:16:02.079Z,7.35
2019-01-13T09:18:28.461Z,6.87
2019-01-13T09:20:54.728Z,7.28
2019-01-13T09:23:21.257Z,7.50
2019-01-13T09:25:47.568Z,6.45
2019-01-13T09:28:13.840Z,6.95
2019-01-13T09:30:40.331Z,6.87
2019-01-13T09:33:06.697Z,9.70
2019-01-13T09:35:33.169Z,5.65
2019-01-13T09:37:59.662Z,5.22
2019-01-13T09:40:27.469Z,4.87
2019-01-13T09:42:54.017Z,5.08
2019-01-13T09:45:20.892Z,5.47
2019-01-13T09:47:47.407Z,5.10
2019-01-13T09:50:18.572Z,5.22
2019-01-13T09:52:45.028Z,6.00
2019-01-13T09:55:14.314Z,5.62
2019-01-13T09:57:40.775Z,6.75
2019-01-13T10:00:13.827Z,5.97
2019-01-13T10:02:46.473Z,5.47
2019-01-13T10:05:08.633Z,6.47
2019-01-13T10:07:35.158Z,6.00
2019-01-13T10:10:01.429Z,5.58
2019-01-13T10:12:28.019Z,6.83
2019-01-13T10:14:54.331Z,15.55
2019-01-13T10:17:20.563Z,5.55
2019-01-13T10:19:46.857Z,7.20
2019-01-13T10:22:13.235Z,5.55
2019-01-13T10:24:39.738Z,4.90
2019-01-13T10:27:06.000Z,6.95
2019-01-13T10:29:32.265Z,6.58
2019-01-13T10:31:58.669Z,5.50
2019-01-13T10:34:24.933Z,5.40
2019-01-13T10:36:51.337Z,6.20
2019-01-13T10:39:17.696Z,6.30
2019-01-13T10:41:43.980Z,7.10
2019-01-13T10:44:10.406Z,8.50
2019-01-13T10:46:36.868Z,6.30
2019-01-13T10:49:03.255Z,6.03
2019-01-13T10:51:29.670Z,4.33
2019-01-13T10:53:56.015Z,5.87
2019-01-13T10:56:22.409Z,5.17
2019-01-13T10:58:48.679Z,4.85
2019-01-13T11:01:15.073Z,5.10
2019-01-13T11:03:41.601Z,4.45
2019-01-13T11:06:08.088Z,4.90
2019-01-13T11:08:34.568Z,6.03
2019-01-13T11:11:00.843Z,5.60
2019-01-13T11:13:27.160Z,6.30
2019-01-13T11:15:53.460Z,5.62
2019-01-13T11:18:19.835Z,5.17
2019-01-13T11:20:46.117Z,16.17
2019-01-13T11:23:12.589Z,7.67
2019-01-13T11:25:38.953Z,8.83
2019-01-13T11:28:05.724Z,7.28
2019-01-13T11:30:32.110Z,5.95
2019-01-13T11:32:58.393Z,4.92
2019-01-13T11:35:24.887Z,4.70
2019-01-13T11:37:51.353Z,5.10
2019-01-13T11:40:23.447Z,5.08
2019-01-13T11:42:49.938Z,5.60
2019-01-13T11:45:16.463Z,4.62
2019-01-13T11:47:42.977Z,5.03
2019-01-13T11:50:17.576Z,4.10
2019-01-13T11:52:44.269Z,3.83
2019-01-13T11:55:12.850Z,4.10
2019-01-13T11:57:39.209Z,3.22
2019-01-13T12:00:09.273Z,3.75
2019-01-13T12:02:35.674Z,3.20
2019-01-13T12:05:03.462Z,3.37
2019-01-13T12:07:29.731Z,3.02
2019-01-13T12:09:56.008Z,2.60
2019-01-13T12:12:22.296Z,3.70
2019-01-13T12:14:48.565Z,3.95
2019-01-13T12:17:14.857Z,2.55
2019-01-13T12:19:41.122Z,1.82
2019-01-13T12:22:07.492Z,2.50
2019-01-13T12:24:33.868Z,7.95
2019-01-13T12:27:00.357Z,2.40
2019-01-13T12:29:26.756Z,2.30
2019-01-13T12:31:53.018Z,2.75
2019-01-13T12:34:19.390Z,2.00
2019-01-13T12:36:45.713Z,2.85
2019-01-13T12:39:13.563Z,1.95
2019-01-13T12:41:40.061Z,2.17
2019-01-13T12:44:06.456Z,2.08
2019-01-13T12:46:32.846Z,1.87
2019-01-13T12:48:59.339Z,2.12
2019-01-13T12:51:25.823Z,2.37
2019-01-13T12:53:52.189Z,1.75
2019-01-13T12:56:18.569Z,1.90
2019-01-13T12:58:45.045Z,1.40
2019-01-13T13:01:11.408Z,1.50
2019-01-13T13:03:37.693Z,1.10
2019-01-13T13:06:04.185Z,2.98
2019-01-13T13:08:30.484Z,1.17
2019-01-13T13:10:56.872Z,2.60
2019-01-13T13:13:23.210Z,2.20
2019-01-13T13:15:49.761Z,1.10
2019-01-13T13:18:18.897Z,1.22
2019-01-13T13:20:45.255Z,0.85
2019-01-13T13:23:11.768Z,1.32
2019-01-13T13:25:38.331Z,1.00
2019-01-13T13:28:04.884Z,1.50
2019-01-13T13:30:31.381Z,0.95
2019-01-13T13:32:57.903Z,0.95
2019-01-13T13:35:24.295Z,0.80
2019-01-13T13:37:50.784Z,0.90
2019-01-13T13:40:22.481Z,0.80
2019-01-13T13:42:49.157Z,0.80
2019-01-13T13:45:15.624Z,0.65
2019-01-13T13:47:42.153Z,0.68
2019-01-13T13:50:12.228Z,0.85
2019-01-13T13:52:38.625Z,0.70
2019-01-13T13:55:07.114Z,0.70
2019-01-13T13:57:33.503Z,1.02
2019-01-13T13:59:59.923Z,1.20
2019-01-13T14:02:26.205Z,0.70
2019-01-13T14:04:52.515Z,1.62
2019-01-13T14:07:18.907Z,0.95
2019-01-13T14:09:45.184Z,0.78
2019-01-13T14:12:11.671Z,1.10
2019-01-13T14:14:37.991Z,11.00
2019-01-13T14:17:04.593Z,3.52
2019-01-13T14:19:31.101Z,2.20
2019-01-13T14:21:57.465Z,0.80
2019-01-13T14:24:23.708Z,1.00
2019-01-13T14:26:50.313Z,1.37
2019-01-13T14:29:16.641Z,1.22
2019-01-13T14:31:43.064Z,1.12
2019-01-13T14:34:09.305Z,0.90
2019-01-13T14:36:35.593Z,0.80
2019-01-13T14:39:02.052Z,1.30
2019-01-13T14:41:28.901Z,1.20
2019-01-13T14:43:55.280Z,0.93
2019-01-13T14:46:21.910Z,1.25
2019-01-13T14:48:48.186Z,1.00
2019-01-13T14:51:14.425Z,0.95
2019-01-13T14:53:40.823Z,2.20
2019-01-13T14:56:07.130Z,1.55
2019-01-13T14:58:33.512Z,1.90
2019-01-13T15:00:59.764Z,1.55
2019-01-13T15:03:26.145Z,2.30
2019-01-13T15:05:52.532Z,1.42
2019-01-13T15:08:18.902Z,1.98
2019-01-13T15:10:45.193Z,1.40
2019-01-13T15:13:11.692Z,1.37
2019-01-13T15:15:38.162Z,1.45
2019-01-13T15:18:04.657Z,1.10
2019-01-13T15:20:31.009Z,1.37
2019-01-13T15:22:57.296Z,1.15
2019-01-13T15:25:26.196Z,1.07
2019-01-13T15:27:52.646Z,1.20
2019-01-13T15:30:28.157Z,1.00
2019-01-13T15:32:54.528Z,1.25
2019-01-13T15:35:21.114Z,1.20
2019-01-13T15:37:47.446Z,1.60
2019-01-13T15:40:16.104Z,2.20
2019-01-13T15:42:42.646Z,1.60
2019-01-13T15:45:30.698Z,2.58
2019-01-13T15:47:57.067Z,1.60
2019-01-13T15:50:26.405Z,1.30
2019-01-13T15:52:52.779Z,2.02
2019-01-13T15:55:19.764Z,1.60
2019-01-13T15:57:46.561Z,2.02
2019-01-13T16:00:16.251Z,2.60
2019-01-13T16:02:44.673Z,2.75
2019-01-13T16:05:13.111Z,2.60
2019-01-13T16:07:39.436Z,2.67
2019-01-13T16:10:11.621Z,2.55
2019-01-13T16:12:38.084Z,2.45
2019-01-13T16:15:07.738Z,2.35
2019-01-13T16:17:34.143Z,3.80
2019-01-13T16:20:01.603Z,3.50
2019-01-13T16:22:27.978Z,2.70
2019-01-13T16:24:54.498Z,3.37
2019-01-13T16:27:20.896Z,4.87
2019-01-13T16:29:47.177Z,6.47
2019-01-13T16:32:13.642Z,9.85
2019-01-13T16:34:39.934Z,5.75
2019-01-13T16:37:06.400Z,5.20
2019-01-13T16:39:32.721Z,3.30
2019-01-13T16:41:59.201Z,3.25
2019-01-13T16:44:26.015Z,3.35
2019-01-13T16:46:52.845Z,2.35
2019-01-13T16:49:19.113Z,3.37
2019-01-13T16:51:45.466Z,7.85
2019-01-13T16:54:11.777Z,6.37
2019-01-13T16:56:38.229Z,4.50
2019-01-13T16:59:04.519Z,5.35
2019-01-13T17:01:30.907Z,6.10
2019-01-13T17:03:57.290Z,5.15
2019-01-13T17:06:24.590Z,2.40
2019-01-13T17:08:51.002Z,7.12
2019-01-13T17:11:17.386Z,5.87
2019-01-13T17:13:43.646Z,6.28
2019-01-13T17:16:09.944Z,5.10
2019-01-13T17:18:36.220Z,8.15
2019-01-13T17:21:02.601Z,15.10
2019-01-13T17:23:28.994Z,12.30
2019-01-13T17:25:55.372Z,11.43
2019-01-13T17:28:21.808Z,12.75
2019-01-13T17:30:48.246Z,14.95
2019-01-13T17:33:14.526Z,6.60
2019-01-13T17:35:40.840Z,9.03
2019-01-13T17:38:07.294Z,8.15
2019-01-13T17:40:33.688Z,7.67
2019-01-13T17:43:00.067Z,5.40
2019-01-13T17:45:28.088Z,4.00
2019-01-13T17:47:54.463Z,3.20
2019-01-13T17:50:22.559Z,3.85
2019-01-13T17:52:49.029Z,4.35
2019-01-13T17:55:17.622Z,3.98
2019-01-13T17:57:44.193Z,4.55
2019-01-13T18:00:17.258Z,4.28
2019-01-13T18:02:43.620Z,4.28
2019-01-13T18:05:09.972Z,5.10
2019-01-13T18:07:36.287Z,4.40
2019-01-13T18:10:05.535Z,3.00
2019-01-13T18:12:31.913Z,2.20
2019-01-13T18:14:58.438Z,3.15
2019-01-13T18:17:24.808Z,3.17
2019-01-13T18:19:51.113Z,3.75
2019-01-13T18:22:17.616Z,3.30
2019-01-13T18:24:44.005Z,4.35
2019-01-13T18:27:10.402Z,3.83
2019-01-13T18:29:36.670Z,4.62
2019-01-13T18:32:03.263Z,4.62
2019-01-13T18:34:29.532Z,4.50
2019-01-13T18:36:55.795Z,3.80
2019-01-13T18:39:22.086Z,3.50
2019-01-13T18:41:48.437Z,3.15
2019-01-13T18:44:16.700Z,3.92
2019-01-13T18:46:43.380Z,3.77
2019-01-13T18:49:09.627Z,3.10
2019-01-13T18:51:35.953Z,2.70
2019-01-13T18:54:02.492Z,3.85
2019-01-13T18:56:28.744Z,3.77
2019-01-13T18:58:55.451Z,4.62
2019-01-13T19:01:21.832Z,3.50
2019-01-13T19:03:48.426Z,3.20
2019-01-13T19:06:15.204Z,4.67
2019-01-13T19:08:41.464Z,4.00
2019-01-13T19:11:11.938Z,3.67
2019-01-13T19:13:50.829Z,3.90
2019-01-13T19:16:19.949Z,3.72
2019-01-13T19:18:46.706Z,3.45
2019-01-13T19:21:13.101Z,5.15
2019-01-13T19:23:39.363Z,32.75
2019-01-13T19:26:05.669Z,5.28
2019-01-13T19:28:32.191Z,4.85
2019-01-13T19:30:58.467Z,3.80
2019-01-13T19:33:24.972Z,4.12
2019-01-13T19:35:52.172Z,4.80
2019-01-13T19:38:18.527Z,4.37
2019-01-13T19:40:45.257Z,3.55
2019-01-13T19:43:12.103Z,5.90
2019-01-13T19:45:38.365Z,5.00
2019-01-13T19:48:04.933Z,4.92
2019-01-13T19:50:31.481Z,4.45
2019-01-13T19:52:57.769Z,4.55
2019-01-13T19:55:24.336Z,4.30
2019-01-13T19:57:50.822Z,4.25
2019-01-13T20:00:26.472Z,4.40
2019-01-13T20:02:53.000Z,3.80
2019-01-13T20:05:19.465Z,4.15
2019-01-13T20:07:45.840Z,4.60
2019-01-13T20:10:13.290Z,4.83
2019-01-13T20:12:39.686Z,5.33
2019-01-13T20:15:09.752Z,5.67
2019-01-13T20:17:36.060Z,4.97
2019-01-13T20:20:05.832Z,3.90
2019-01-13T20:22:32.272Z,4.65
2019-01-13T20:24:58.556Z,4.00
2019-01-13T20:27:24.827Z,5.35
2019-01-13T20:29:51.262Z,4.25
2019-01-13T20:32:17.498Z,5.58
2019-01-13T20:34:43.932Z,2.90
2019-01-13T20:37:10.238Z,3.67
2019-01-13T20:39:36.586Z,3.47
2019-01-13T20:42:03.153Z,2.47
2019-01-13T20:44:29.457Z,2.33
2019-01-13T20:46:55.746Z,2.85
2019-01-13T20:49:22.216Z,2.22
2019-01-13T20:51:48.599Z,2.85
2019-01-13T20:54:14.901Z,4.67
2019-01-13T20:56:41.273Z,4.12
2019-01-13T20:59:07.537Z,3.35
2019-01-13T21:01:33.989Z,4.35
2019-01-13T21:04:00.284Z,3.08
2019-01-13T21:06:26.663Z,3.27
2019-01-13T21:08:52.943Z,3.35
2019-01-13T21:11:19.339Z,2.40
2019-01-13T21:13:45.705Z,2.30
2019-01-13T21:16:19.540Z,2.35
2019-01-13T21:18:47.454Z,3.17
2019-01-13T21:21:14.011Z,2.47
2019-01-13T21:23:40.272Z,2.00
2019-01-13T21:26:06.545Z,2.33
2019-01-13T21:28:32.948Z,1.85
2019-01-13T21:30:59.336Z,1.52
2019-01-13T21:33:25.827Z,2.40
2019-01-13T21:35:52.182Z,1.65
2019-01-13T21:38:18.586Z,1.60
2019-01-13T21:40:44.969Z,1.45
2019-01-13T21:43:11.224Z,1.65
2019-01-13T21:45:37.747Z,1.57
2019-01-13T21:48:04.196Z,1.32
2019-01-13T21:50:30.557Z,1.60
2019-01-13T21:52:57.063Z,1.90
2019-01-13T21:55:23.517Z,1.30
2019-01-13T21:57:49.951Z,2.10
2019-01-13T22:00:20.009Z,1.75
2019-01-13T22:02:46.608Z,1.07
2019-01-13T22:05:13.112Z,0.90
2019-01-13T22:07:39.577Z,1.15
2019-01-13T22:10:09.645Z,1.05
2019-01-13T22:12:35.975Z,1.00
2019-01-13T22:15:03.636Z,1.07
2019-01-13T22:17:29.890Z,1.05
2019-01-13T22:19:56.191Z,1.25
2019-01-13T22:22:22.566Z,1.05
2019-01-13T22:24:48.923Z,1.10
2019-01-13T22:27:15.199Z,1.00
2019-01-13T22:29:41.475Z,1.70
2019-01-13T22:32:07.733Z,1.00
2019-01-13T22:34:34.178Z,1.12
2019-01-13T22:37:00.604Z,1.02
2019-01-13T22:39:26.889Z,1.00
2019-01-13T22:41:53.150Z,1.20
2019-01-13T22:44:19.543Z,0.93
2019-01-13T22:46:45.815Z,1.30
2019-01-13T22:49:12.197Z,1.02
2019-01-13T22:51:38.667Z,1.20
2019-01-13T22:54:04.931Z,0.93
2019-01-13T22:56:31.213Z,0.80
2019-01-13T22:58:57.472Z,1.00
2019-01-13T23:01:26.938Z,0.80
2019-01-13T23:03:54.140Z,0.90
2019-01-13T23:06:20.428Z,1.17
2019-01-13T23:08:46.791Z,0.90
2019-01-13T23:11:13.084Z,0.90
2019-01-13T23:13:39.404Z,1.05
2019-01-13T23:16:05.694Z,1.10
2019-01-13T23:18:32.058Z,1.00
2019-01-13T23:20:58.483Z,1.02
2019-01-13T23:23:24.880Z,1.20
2019-01-13T23:25:51.157Z,1.20
2019-01-13T23:28:17.434Z,1.17
2019-01-13T23:30:43.808Z,1.00
2019-01-13T23:33:10.300Z,1.10
2019-01-13T23:35:36.597Z,1.30
2019-01-13T23:38:03.063Z,1.40
2019-01-13T23:40:29.552Z,1.40
2019-01-13T23:42:55.963Z,1.42
2019-01-13T23:45:22.439Z,1.35
2019-01-13T23:47:48.807Z,1.40
2019-01-13T23:50:15.268Z,1.52
2019-01-13T23:52:41.547Z,1.40
2019-01-13T23:55:08.300Z,1.55
2019-01-13T23:57:34.749Z,1.22
